createdAt,value
2017-04-26T00:00:19.958Z,7.53
2017-04-26T00:00:46.047Z,7.51
2017-04-26T00:01:12.182Z,7.56
2017-04-26T00:01:38.327Z,7.54
2017-04-26T00:02:04.413Z,7.51
2017-04-26T00:02:30.572Z,7.53
2017-04-26T00:02:56.699Z,7.61
2017-04-26T00:03:22.822Z,7.53
2017-04-26T00:03:48.964Z,7.6
2017-04-26T00:04:15.077Z,7.6
2017-04-26T00:04:41.210Z,7.48
2017-04-26T00:05:07.357Z,7.47
2017-04-26T00:05:33.443Z,7.45
2017-04-26T00:05:59.625Z,7.4
2017-04-26T00:06:25.719Z,7.42
2017-04-26T00:06:51.855Z,7.36
2017-04-26T00:07:17.955Z,7.4
2017-04-26T00:07:44.061Z,7.47
2017-04-26T00:08:10.168Z,7.4
2017-04-26T00:08:36.292Z,7.31
2017-04-26T00:09:02.507Z,7.29
2017-04-26T00:09:28.594Z,7.28
2017-04-26T00:09:54.709Z,7.32
2017-04-26T00:10:20.813Z,7.31
2017-04-26T00:10:46.929Z,7.24
2017-04-26T00:11:13.039Z,7.18
2017-04-26T00:11:39.175Z,7.23
2017-04-26T00:12:05.321Z,7.2
2017-04-26T00:12:31.409Z,7.18
2017-04-26T00:12:57.588Z,7.17
2017-04-26T00:13:23.682Z,7.21
2017-04-26T00:13:49.794Z,7.15
2017-04-26T00:14:15.921Z,7.13
2017-04-26T00:14:42.059Z,7.18
2017-04-26T00:15:08.219Z,7.13
2017-04-26T00:15:34.313Z,7.21
2017-04-26T00:16:00.403Z,7.1
2017-04-26T00:16:26.529Z,7.13
2017-04-26T00:16:52.625Z,7.14
2017-04-26T00:17:18.714Z,7.11
2017-04-26T00:17:44.814Z,7.1
2017-04-26T00:18:10.917Z,7.13
2017-04-26T00:18:37.075Z,7.11
2017-04-26T00:19:03.224Z,7.13
2017-04-26T00:19:29.330Z,7.03
2017-04-26T00:19:55.445Z,7.05
2017-04-26T00:20:21.544Z,6.99
2017-04-26T00:20:47.631Z,7.1
2017-04-26T00:21:13.785Z,7.11
2017-04-26T00:21:39.890Z,7.07
2017-04-26T00:22:05.972Z,7.13
2017-04-26T00:22:32.093Z,7.06
2017-04-26T00:22:58.197Z,7.02
2017-04-26T00:23:24.335Z,7.14
2017-04-26T00:23:50.479Z,6.99
2017-04-26T00:24:16.636Z,7.11
2017-04-26T00:24:42.755Z,7.15
2017-04-26T00:25:08.867Z,7.07
2017-04-26T00:25:34.967Z,7.15
2017-04-26T00:26:01.064Z,7.07
2017-04-26T00:26:27.197Z,7.15
2017-04-26T00:26:53.312Z,7.15
2017-04-26T00:27:19.455Z,7.1
2017-04-26T00:27:45.588Z,7.14
2017-04-26T00:28:11.703Z,7.11
2017-04-26T00:28:37.864Z,7.02
2017-04-26T00:29:04.022Z,6.99
2017-04-26T00:29:30.143Z,7.03
2017-04-26T00:29:56.254Z,7.05
2017-04-26T00:30:22.410Z,6.96
2017-04-26T00:30:48.560Z,6.99
2017-04-26T00:31:14.672Z,6.92
2017-04-26T00:31:40.825Z,6.88
2017-04-26T00:32:06.955Z,6.78
2017-04-26T00:32:33.066Z,6.87
2017-04-26T00:32:59.212Z,6.81
2017-04-26T00:33:25.343Z,6.78
2017-04-26T00:33:51.429Z,6.78
2017-04-26T00:34:17.548Z,6.84
2017-04-26T00:34:43.676Z,6.88
2017-04-26T00:35:09.792Z,6.82
2017-04-26T00:35:35.879Z,6.92
2017-04-26T00:36:01.987Z,6.95
2017-04-26T00:36:28.081Z,7.03
2017-04-26T00:36:54.207Z,6.99
2017-04-26T00:37:20.296Z,7.03
2017-04-26T00:37:46.587Z,7
2017-04-26T00:38:12.721Z,7.03
2017-04-26T00:38:38.811Z,7.15
2017-04-26T00:39:04.923Z,7.14
2017-04-26T00:39:31.081Z,7.05
2017-04-26T00:39:57.201Z,7.15
2017-04-26T00:40:23.287Z,7.05
2017-04-26T00:40:49.442Z,7.13
2017-04-26T00:41:15.539Z,7.06
2017-04-26T00:41:41.629Z,7.11
2017-04-26T00:42:07.755Z,7.07
2017-04-26T00:42:33.842Z,7.11
2017-04-26T00:42:59.974Z,7.15
2017-04-26T00:43:26.122Z,7.13
2017-04-26T00:43:52.282Z,7.1
2017-04-26T00:44:18.462Z,7.18
2017-04-26T00:44:44.586Z,7.11
2017-04-26T00:45:10.675Z,7.07
2017-04-26T00:45:36.804Z,7.02
2017-04-26T00:46:02.907Z,7.1
2017-04-26T00:46:28.991Z,7.07
2017-04-26T00:46:55.088Z,7.05
2017-04-26T00:47:21.191Z,6.99
2017-04-26T00:47:47.279Z,7.03
2017-04-26T00:48:13.402Z,6.97
2017-04-26T00:48:39.488Z,7
2017-04-26T00:49:05.640Z,7.03
2017-04-26T00:49:31.799Z,7.14
2017-04-26T00:49:57.884Z,7.15
2017-04-26T00:50:24.057Z,7.11
2017-04-26T00:50:50.160Z,7.06
2017-04-26T00:51:16.274Z,7.05
2017-04-26T00:51:42.368Z,7.06
2017-04-26T00:52:08.527Z,7.02
2017-04-26T00:52:34.616Z,6.96
2017-04-26T00:53:00.704Z,7
2017-04-26T00:53:26.859Z,7.02
2017-04-26T00:53:53.010Z,7.06
2017-04-26T00:54:19.224Z,7.11
2017-04-26T00:54:45.336Z,7
2017-04-26T00:55:11.478Z,7.02
2017-04-26T00:55:37.610Z,6.97
2017-04-26T00:56:03.700Z,7
2017-04-26T00:56:29.812Z,6.99
2017-04-26T00:56:55.945Z,6.99
2017-04-26T00:57:22.039Z,6.96
2017-04-26T00:57:48.158Z,7
2017-04-26T00:58:14.277Z,6.96
2017-04-26T00:58:40.373Z,6.99
2017-04-26T00:59:06.522Z,7
2017-04-26T00:59:32.666Z,7.07
2017-04-26T00:59:58.777Z,7.1
2017-04-26T01:00:24.883Z,7.07
2017-04-26T01:00:50.977Z,7.06
2017-04-26T01:01:17.089Z,7.13
2017-04-26T01:01:43.266Z,7.13
2017-04-26T01:02:09.362Z,7.17
2017-04-26T01:02:35.499Z,7.18
2017-04-26T01:03:01.651Z,7.14
2017-04-26T01:03:27.782Z,7.14
2017-04-26T01:03:53.894Z,7.11
2017-04-26T01:04:20.045Z,7.14
2017-04-26T01:04:46.162Z,7.11
2017-04-26T01:05:12.292Z,7.07
2017-04-26T01:05:38.390Z,7.1
2017-04-26T01:06:04.478Z,7.17
2017-04-26T01:06:30.581Z,7.15
2017-04-26T01:06:56.683Z,7.11
2017-04-26T01:07:22.767Z,7.11
2017-04-26T01:07:48.915Z,7.02
2017-04-26T01:08:15.222Z,6.99
2017-04-26T01:08:41.359Z,7
2017-04-26T01:09:07.526Z,7.02
2017-04-26T01:09:33.656Z,6.99
2017-04-26T01:09:59.772Z,7.05
2017-04-26T01:10:25.874Z,7.02
2017-04-26T01:10:51.956Z,7.06
2017-04-26T01:11:18.081Z,6.95
2017-04-26T01:11:44.182Z,6.97
2017-04-26T01:12:10.270Z,7.05
2017-04-26T01:12:36.391Z,7.02
2017-04-26T01:13:02.577Z,6.99
2017-04-26T01:13:28.692Z,6.96
2017-04-26T01:13:54.780Z,6.92
2017-04-26T01:14:20.942Z,6.87
2017-04-26T01:14:47.063Z,6.92
2017-04-26T01:15:13.175Z,6.89
2017-04-26T01:15:39.306Z,6.95
2017-04-26T01:16:05.483Z,6.95
2017-04-26T01:16:31.595Z,7
2017-04-26T01:16:57.697Z,6.89
2017-04-26T01:17:23.880Z,6.92
2017-04-26T01:17:50.017Z,7
2017-04-26T01:18:16.193Z,6.88
2017-04-26T01:18:42.378Z,6.96
2017-04-26T01:19:08.540Z,6.89
2017-04-26T01:19:34.657Z,6.92
2017-04-26T01:20:00.761Z,6.81
2017-04-26T01:20:26.851Z,6.78
2017-04-26T01:20:52.940Z,6.85
2017-04-26T01:21:19.037Z,6.77
2017-04-26T01:21:45.158Z,6.79
2017-04-26T01:22:11.262Z,6.74
2017-04-26T01:22:37.350Z,6.74
2017-04-26T01:23:03.443Z,6.79
2017-04-26T01:23:29.573Z,6.84
2017-04-26T01:23:55.665Z,6.75
2017-04-26T01:24:21.800Z,6.77
2017-04-26T01:24:47.990Z,6.7
2017-04-26T01:25:14.137Z,6.78
2017-04-26T01:25:40.249Z,6.82
2017-04-26T01:26:06.378Z,6.82
2017-04-26T01:26:32.475Z,6.78
2017-04-26T01:26:58.572Z,6.7
2017-04-26T01:27:24.665Z,6.6
2017-04-26T01:27:50.800Z,6.7
2017-04-26T01:28:16.907Z,6.7
2017-04-26T01:28:43.081Z,6.77
2017-04-26T01:29:09.215Z,6.74
2017-04-26T01:29:35.318Z,6.77
2017-04-26T01:30:01.499Z,6.72
2017-04-26T01:30:27.585Z,6.78
2017-04-26T01:30:53.685Z,6.7
2017-04-26T01:31:19.790Z,6.72
2017-04-26T01:31:45.925Z,6.75
2017-04-26T01:32:12.046Z,6.78
2017-04-26T01:32:38.139Z,6.79
2017-04-26T01:33:04.299Z,6.81
2017-04-26T01:33:30.502Z,6.79
2017-04-26T01:33:56.638Z,6.77
2017-04-26T01:34:22.763Z,6.72
2017-04-26T01:34:48.922Z,6.78
2017-04-26T01:35:15.035Z,6.77
2017-04-26T01:35:41.131Z,6.81
2017-04-26T01:36:07.252Z,6.87
2017-04-26T01:36:33.321Z,6.88
2017-04-26T01:36:59.414Z,6.88
2017-04-26T01:37:25.544Z,6.85
2017-04-26T01:37:51.712Z,6.85
2017-04-26T01:38:17.841Z,6.77
2017-04-26T01:38:43.921Z,6.79
2017-04-26T01:39:10.070Z,6.81
2017-04-26T01:39:36.200Z,6.82
2017-04-26T01:40:02.312Z,6.77
2017-04-26T01:40:28.431Z,6.7
2017-04-26T01:40:54.533Z,6.69
2017-04-26T01:41:20.622Z,6.75
2017-04-26T01:41:46.734Z,6.74
2017-04-26T01:42:12.864Z,6.66
2017-04-26T01:42:38.959Z,6.72
2017-04-26T01:43:05.047Z,6.74
2017-04-26T01:43:31.178Z,6.7
2017-04-26T01:43:57.318Z,6.6
2017-04-26T01:44:23.501Z,6.6
2017-04-26T01:44:49.623Z,6.57
2017-04-26T01:45:15.758Z,6.72
2017-04-26T01:45:41.864Z,6.72
2017-04-26T01:46:07.960Z,6.7
2017-04-26T01:46:34.096Z,6.75
2017-04-26T01:47:00.197Z,6.62
2017-04-26T01:47:26.322Z,6.64
2017-04-26T01:47:52.411Z,6.62
2017-04-26T01:48:18.565Z,6.7
2017-04-26T01:48:44.669Z,6.7
2017-04-26T01:49:10.809Z,6.82
2017-04-26T01:49:36.929Z,6.78
2017-04-26T01:50:03.016Z,6.79
2017-04-26T01:50:29.121Z,6.81
2017-04-26T01:50:55.220Z,6.79
2017-04-26T01:51:21.307Z,6.77
2017-04-26T01:51:47.433Z,6.78
2017-04-26T01:52:13.535Z,6.77
2017-04-26T01:52:39.668Z,6.74
2017-04-26T01:53:05.837Z,6.72
2017-04-26T01:53:31.996Z,6.7
2017-04-26T01:53:58.108Z,6.75
2017-04-26T01:54:24.251Z,6.75
2017-04-26T01:54:50.373Z,6.69
2017-04-26T01:55:16.498Z,6.64
2017-04-26T01:55:42.626Z,6.75
2017-04-26T01:56:08.711Z,6.69
2017-04-26T01:56:34.861Z,6.67
2017-04-26T01:57:00.992Z,6.59
2017-04-26T01:57:27.125Z,6.63
2017-04-26T01:57:53.245Z,6.72
2017-04-26T01:58:19.347Z,6.64
2017-04-26T01:58:45.462Z,6.66
2017-04-26T01:59:11.580Z,6.66
2017-04-26T01:59:37.735Z,6.72
2017-04-26T02:00:03.855Z,6.59
2017-04-26T02:00:29.963Z,6.63
2017-04-26T02:00:56.118Z,6.72
2017-04-26T02:01:22.241Z,6.57
2017-04-26T02:01:48.403Z,6.66
2017-04-26T02:02:14.529Z,6.63
2017-04-26T02:02:40.660Z,6.62
2017-04-26T02:03:06.766Z,6.51
2017-04-26T02:03:32.917Z,6.44
2017-04-26T02:03:59.049Z,6.42
2017-04-26T02:04:25.212Z,6.52
2017-04-26T02:04:51.308Z,6.48
2017-04-26T02:05:17.411Z,6.42
2017-04-26T02:05:43.554Z,6.42
2017-04-26T02:06:09.657Z,6.46
2017-04-26T02:06:35.742Z,6.39
2017-04-26T02:07:01.841Z,6.38
2017-04-26T02:07:27.944Z,6.41
2017-04-26T02:07:54.082Z,6.39
2017-04-26T02:08:20.225Z,6.44
2017-04-26T02:08:46.384Z,6.41
2017-04-26T02:09:12.501Z,6.38
2017-04-26T02:09:38.638Z,6.49
2017-04-26T02:10:04.744Z,6.36
2017-04-26T02:10:30.862Z,6.3
2017-04-26T02:10:56.974Z,6.33
2017-04-26T02:11:23.080Z,6.33
2017-04-26T02:11:49.196Z,6.3
2017-04-26T02:12:15.325Z,6.35
2017-04-26T02:12:41.436Z,6.38
2017-04-26T02:13:07.551Z,6.45
2017-04-26T02:13:33.709Z,6.33
2017-04-26T02:13:59.830Z,6.38
2017-04-26T02:14:25.970Z,6.31
2017-04-26T02:14:52.097Z,6.42
2017-04-26T02:15:18.220Z,6.42
2017-04-26T02:15:44.308Z,6.33
2017-04-26T02:16:10.406Z,6.41
2017-04-26T02:16:36.538Z,6.44
2017-04-26T02:17:02.654Z,6.33
2017-04-26T02:17:28.775Z,6.36
2017-04-26T02:17:54.886Z,6.39
2017-04-26T02:18:21.014Z,6.38
2017-04-26T02:18:47.139Z,6.31
2017-04-26T02:19:13.328Z,6.42
2017-04-26T02:19:39.451Z,6.39
2017-04-26T02:20:05.582Z,6.38
2017-04-26T02:20:31.667Z,6.36
2017-04-26T02:20:57.763Z,6.38
2017-04-26T02:21:23.867Z,6.39
2017-04-26T02:21:49.953Z,6.42
2017-04-26T02:22:16.071Z,6.35
2017-04-26T02:22:42.187Z,6.35
2017-04-26T02:23:08.290Z,6.41
2017-04-26T02:23:34.393Z,6.36
2017-04-26T02:24:00.528Z,6.36
2017-04-26T02:24:26.650Z,6.31
2017-04-26T02:24:52.807Z,6.36
2017-04-26T02:25:18.921Z,6.35
2017-04-26T02:25:45.013Z,6.31
2017-04-26T02:26:11.117Z,6.24
2017-04-26T02:26:37.256Z,6.35
2017-04-26T02:27:03.347Z,6.35
2017-04-26T02:27:29.504Z,6.33
2017-04-26T02:27:55.652Z,6.36
2017-04-26T02:28:21.801Z,6.33
2017-04-26T02:28:47.939Z,6.27
2017-04-26T02:29:14.083Z,6.31
2017-04-26T02:29:40.241Z,6.31
2017-04-26T02:30:06.334Z,6.35
2017-04-26T02:30:32.423Z,6.24
2017-04-26T02:30:58.554Z,6.27
2017-04-26T02:31:24.700Z,6.27
2017-04-26T02:31:50.813Z,6.22
2017-04-26T02:32:16.914Z,6.24
2017-04-26T02:32:43.039Z,6.26
2017-04-26T02:33:09.150Z,6.35
2017-04-26T02:33:35.301Z,6.3
2017-04-26T02:34:01.413Z,6.24
2017-04-26T02:34:27.542Z,6.28
2017-04-26T02:34:53.662Z,6.16
2017-04-26T02:35:19.822Z,6.24
2017-04-26T02:35:45.953Z,6.14
2017-04-26T02:36:12.098Z,6.2
2017-04-26T02:36:38.212Z,6.27
2017-04-26T02:37:04.334Z,6.27
2017-04-26T02:37:30.464Z,6.28
2017-04-26T02:37:56.624Z,6.3
2017-04-26T02:38:22.745Z,6.22
2017-04-26T02:38:48.905Z,6.24
2017-04-26T02:39:15.064Z,6.35
2017-04-26T02:39:41.189Z,6.26
2017-04-26T02:40:07.301Z,6.31
2017-04-26T02:40:33.401Z,6.22
2017-04-26T02:40:59.504Z,6.2
2017-04-26T02:41:25.613Z,6.27
2017-04-26T02:41:51.710Z,6.33
2017-04-26T02:42:17.840Z,6.31
2017-04-26T02:42:43.952Z,6.3
2017-04-26T02:43:10.097Z,6.2
2017-04-26T02:43:36.258Z,6.17
2017-04-26T02:44:02.348Z,6.16
2017-04-26T02:44:28.484Z,6.2
2017-04-26T02:44:54.589Z,6.14
2017-04-26T02:45:20.682Z,6.27
2017-04-26T02:45:46.771Z,6.2
2017-04-26T02:46:12.872Z,6.28
2017-04-26T02:46:38.968Z,6.31
2017-04-26T02:47:05.079Z,6.26
2017-04-26T02:47:31.177Z,6.38
2017-04-26T02:47:57.369Z,6.22
2017-04-26T02:48:23.477Z,6.22
2017-04-26T02:48:49.674Z,6.24
2017-04-26T02:49:15.808Z,6.35
2017-04-26T02:49:41.922Z,6.36
2017-04-26T02:50:08.017Z,6.42
2017-04-26T02:50:34.110Z,6.41
2017-04-26T02:51:00.260Z,6.31
2017-04-26T02:51:26.391Z,6.46
2017-04-26T02:51:52.501Z,6.41
2017-04-26T02:52:18.620Z,6.3
2017-04-26T02:52:44.778Z,6.24
2017-04-26T02:53:10.890Z,6.27
2017-04-26T02:53:37.059Z,6.24
2017-04-26T02:54:03.190Z,6.17
2017-04-26T02:54:29.308Z,6.16
2017-04-26T02:54:55.418Z,6.2
2017-04-26T02:55:21.551Z,6.22
2017-04-26T02:55:47.700Z,6.2
2017-04-26T02:56:13.790Z,6.3
2017-04-26T02:56:39.943Z,6.26
2017-04-26T02:57:06.065Z,6.22
2017-04-26T02:57:32.203Z,6.27
2017-04-26T02:57:58.330Z,6.27
2017-04-26T02:58:24.487Z,6.3
2017-04-26T02:58:50.569Z,6.22
2017-04-26T02:59:16.717Z,6.3
2017-04-26T02:59:42.814Z,6.3
2017-04-26T03:00:08.903Z,6.39
2017-04-26T03:00:35.044Z,6.31
2017-04-26T03:01:01.146Z,6.31
2017-04-26T03:01:27.264Z,6.3
2017-04-26T03:01:53.393Z,6.3
2017-04-26T03:02:19.504Z,6.33
2017-04-26T03:02:45.655Z,6.31
2017-04-26T03:03:11.817Z,6.38
2017-04-26T03:03:37.931Z,6.31
2017-04-26T03:04:04.049Z,6.35
2017-04-26T03:04:30.264Z,6.33
2017-04-26T03:04:56.403Z,6.35
2017-04-26T03:05:22.513Z,6.36
2017-04-26T03:05:48.672Z,6.41
2017-04-26T03:06:14.764Z,6.46
2017-04-26T03:06:40.851Z,6.41
2017-04-26T03:07:06.955Z,6.44
2017-04-26T03:07:33.121Z,6.44
2017-04-26T03:07:59.309Z,6.38
2017-04-26T03:08:25.399Z,6.42
2017-04-26T03:08:51.511Z,6.44
2017-04-26T03:09:17.646Z,6.44
2017-04-26T03:09:43.738Z,6.49
2017-04-26T03:10:09.849Z,6.48
2017-04-26T03:10:35.980Z,6.42
2017-04-26T03:11:02.077Z,6.31
2017-04-26T03:11:28.189Z,6.3
2017-04-26T03:11:54.287Z,6.28
2017-04-26T03:12:20.390Z,6.26
2017-04-26T03:12:46.528Z,6.35
2017-04-26T03:13:12.677Z,6.28
2017-04-26T03:13:38.810Z,6.31
2017-04-26T03:14:04.992Z,6.26
2017-04-26T03:14:31.146Z,6.35
2017-04-26T03:14:57.257Z,6.27
2017-04-26T03:15:23.381Z,6.27
2017-04-26T03:15:49.484Z,6.3
2017-04-26T03:16:15.615Z,6.22
2017-04-26T03:16:41.711Z,6.2
2017-04-26T03:17:07.869Z,6.27
2017-04-26T03:17:33.956Z,6.17
2017-04-26T03:18:00.101Z,6.24
2017-04-26T03:18:26.195Z,6.27
2017-04-26T03:18:52.322Z,6.2
2017-04-26T03:19:18.482Z,6.07
2017-04-26T03:19:44.591Z,6.09
2017-04-26T03:20:10.688Z,6.08
2017-04-26T03:20:36.818Z,6.11
2017-04-26T03:21:02.905Z,6.05
2017-04-26T03:21:28.997Z,6.07
2017-04-26T03:21:55.154Z,5.98
2017-04-26T03:22:21.244Z,5.94
2017-04-26T03:22:47.331Z,5.83
2017-04-26T03:23:13.441Z,5.8
2017-04-26T03:23:39.585Z,5.73
2017-04-26T03:24:05.710Z,5.83
2017-04-26T03:24:31.821Z,5.69
2017-04-26T03:24:57.963Z,5.71
2017-04-26T03:25:24.095Z,5.76
2017-04-26T03:25:50.213Z,5.71
2017-04-26T03:26:16.325Z,5.76
2017-04-26T03:26:42.458Z,5.84
2017-04-26T03:27:08.552Z,5.79
2017-04-26T03:27:34.639Z,5.68
2017-04-26T03:28:00.787Z,5.71
2017-04-26T03:28:26.918Z,5.71
2017-04-26T03:28:53.029Z,5.62
2017-04-26T03:29:19.161Z,5.76
2017-04-26T03:29:45.318Z,5.69
2017-04-26T03:30:11.453Z,5.75
2017-04-26T03:30:37.549Z,5.71
2017-04-26T03:31:03.652Z,5.69
2017-04-26T03:31:29.738Z,5.72
2017-04-26T03:31:55.831Z,5.79
2017-04-26T03:32:21.932Z,5.83
2017-04-26T03:32:48.050Z,5.75
2017-04-26T03:33:14.161Z,5.73
2017-04-26T03:33:40.344Z,5.79
2017-04-26T03:34:06.461Z,5.76
2017-04-26T03:34:32.546Z,5.79
2017-04-26T03:34:58.648Z,5.82
2017-04-26T03:35:24.737Z,5.73
2017-04-26T03:35:50.841Z,5.72
2017-04-26T03:36:16.929Z,5.69
2017-04-26T03:36:43.015Z,5.71
2017-04-26T03:37:09.119Z,5.75
2017-04-26T03:37:35.241Z,5.69
2017-04-26T03:38:01.376Z,5.66
2017-04-26T03:38:27.506Z,5.66
2017-04-26T03:38:53.632Z,5.66
2017-04-26T03:39:19.792Z,5.66
2017-04-26T03:39:45.891Z,5.66
2017-04-26T03:40:12.021Z,5.69
2017-04-26T03:40:38.140Z,5.68
2017-04-26T03:41:04.266Z,5.69
2017-04-26T03:41:30.373Z,5.65
2017-04-26T03:41:56.502Z,5.71
2017-04-26T03:42:22.626Z,5.68
2017-04-26T03:42:48.739Z,5.69
2017-04-26T03:43:14.864Z,5.65
2017-04-26T03:43:40.967Z,5.69
2017-04-26T03:44:07.077Z,5.69
2017-04-26T03:44:33.260Z,5.66
2017-04-26T03:44:59.415Z,5.71
2017-04-26T03:45:25.525Z,5.68
2017-04-26T03:45:51.618Z,5.71
2017-04-26T03:46:17.765Z,5.79
2017-04-26T03:46:43.891Z,5.69
2017-04-26T03:47:09.995Z,5.79
2017-04-26T03:47:36.078Z,5.76
2017-04-26T03:48:02.227Z,5.68
2017-04-26T03:48:28.386Z,5.66
2017-04-26T03:48:54.526Z,5.8
2017-04-26T03:49:20.646Z,5.75
2017-04-26T03:49:46.773Z,5.84
2017-04-26T03:50:12.913Z,5.72
2017-04-26T03:50:39.024Z,5.75
2017-04-26T03:51:05.158Z,5.71
2017-04-26T03:51:31.249Z,5.69
2017-04-26T03:51:57.350Z,5.68
2017-04-26T03:52:23.463Z,5.69
2017-04-26T03:52:49.755Z,5.68
2017-04-26T03:53:15.856Z,5.65
2017-04-26T03:53:41.996Z,5.62
2017-04-26T03:54:08.082Z,5.66
2017-04-26T03:54:34.216Z,5.68
2017-04-26T03:55:00.309Z,5.66
2017-04-26T03:55:26.445Z,5.64
2017-04-26T03:55:52.548Z,5.66
2017-04-26T03:56:18.643Z,5.66
2017-04-26T03:56:44.731Z,5.68
2017-04-26T03:57:10.855Z,5.66
2017-04-26T03:57:36.994Z,5.65
2017-04-26T03:58:03.211Z,5.57
2017-04-26T03:58:29.333Z,5.62
2017-04-26T03:58:55.445Z,5.71
2017-04-26T03:59:21.549Z,5.66
2017-04-26T03:59:47.673Z,5.62
2017-04-26T04:00:13.832Z,5.61
2017-04-26T04:00:39.932Z,5.56
2017-04-26T04:01:06.038Z,5.62
2017-04-26T04:01:32.146Z,5.65
2017-04-26T04:01:58.243Z,5.66
2017-04-26T04:02:24.373Z,5.56
2017-04-26T04:02:50.460Z,5.64
2017-04-26T04:03:16.559Z,5.66
2017-04-26T04:03:42.670Z,5.66
2017-04-26T04:04:08.772Z,5.64
2017-04-26T04:04:34.902Z,5.8
2017-04-26T04:05:01.010Z,5.76
2017-04-26T04:05:27.108Z,5.8
2017-04-26T04:05:53.210Z,5.73
2017-04-26T04:06:19.323Z,5.89
2017-04-26T04:06:45.442Z,5.86
2017-04-26T04:07:11.546Z,5.84
2017-04-26T04:07:37.634Z,5.87
2017-04-26T04:08:03.746Z,5.82
2017-04-26T04:08:29.874Z,5.83
2017-04-26T04:08:56.020Z,5.73
2017-04-26T04:09:22.124Z,5.75
2017-04-26T04:09:48.262Z,5.89
2017-04-26T04:10:14.404Z,5.9
2017-04-26T04:10:40.562Z,5.83
2017-04-26T04:11:06.652Z,5.83
2017-04-26T04:11:32.739Z,5.84
2017-04-26T04:11:58.847Z,5.87
2017-04-26T04:12:24.970Z,5.9
2017-04-26T04:12:51.058Z,5.87
2017-04-26T04:13:17.159Z,5.84
2017-04-26T04:13:43.282Z,5.83
2017-04-26T04:14:09.420Z,5.91
2017-04-26T04:14:35.544Z,5.87
2017-04-26T04:15:01.675Z,5.93
2017-04-26T04:15:27.810Z,5.89
2017-04-26T04:15:53.931Z,5.94
2017-04-26T04:16:20.063Z,5.89
2017-04-26T04:16:46.151Z,5.87
2017-04-26T04:17:12.245Z,5.82
2017-04-26T04:17:38.401Z,5.79
2017-04-26T04:18:04.570Z,5.79
2017-04-26T04:18:30.706Z,5.79
2017-04-26T04:18:56.921Z,5.68
2017-04-26T04:19:23.064Z,5.8
2017-04-26T04:19:49.214Z,5.76
2017-04-26T04:20:15.328Z,5.76
2017-04-26T04:20:41.445Z,5.89
2017-04-26T04:21:07.575Z,5.93
2017-04-26T04:21:33.666Z,5.87
2017-04-26T04:21:59.754Z,5.98
2017-04-26T04:22:25.859Z,5.97
2017-04-26T04:22:51.953Z,5.9
2017-04-26T04:23:18.041Z,5.89
2017-04-26T04:23:44.170Z,5.94
2017-04-26T04:24:10.294Z,5.9
2017-04-26T04:24:36.409Z,5.94
2017-04-26T04:25:02.529Z,5.93
2017-04-26T04:25:28.648Z,5.93
2017-04-26T04:25:54.774Z,5.98
2017-04-26T04:26:20.867Z,5.89
2017-04-26T04:26:46.976Z,5.89
2017-04-26T04:27:13.077Z,5.98
2017-04-26T04:27:39.172Z,5.93
2017-04-26T04:28:05.308Z,5.98
2017-04-26T04:28:31.437Z,5.93
2017-04-26T04:28:57.594Z,5.91
2017-04-26T04:29:23.707Z,5.97
2017-04-26T04:29:49.877Z,5.93
2017-04-26T04:30:16.010Z,6.04
2017-04-26T04:30:42.175Z,5.98
2017-04-26T04:31:08.274Z,5.87
2017-04-26T04:31:34.359Z,5.99
2017-04-26T04:32:00.460Z,6.04
2017-04-26T04:32:26.562Z,6.01
2017-04-26T04:32:52.646Z,6.02
2017-04-26T04:33:18.771Z,5.89
2017-04-26T04:33:44.957Z,5.9
2017-04-26T04:34:11.068Z,5.97
2017-04-26T04:34:37.184Z,5.99
2017-04-26T04:35:03.315Z,5.99
2017-04-26T04:35:29.407Z,5.98
2017-04-26T04:35:55.490Z,5.98
2017-04-26T04:36:21.594Z,5.97
2017-04-26T04:36:47.710Z,5.89
2017-04-26T04:37:13.813Z,5.89
2017-04-26T04:37:39.929Z,5.91
2017-04-26T04:38:06.024Z,5.9
2017-04-26T04:38:32.182Z,5.98
2017-04-26T04:38:58.322Z,6.01
2017-04-26T04:39:24.482Z,6.02
2017-04-26T04:39:50.587Z,6.05
2017-04-26T04:40:16.681Z,6.04
2017-04-26T04:40:42.792Z,6.08
2017-04-26T04:41:08.895Z,6.07
2017-04-26T04:41:35.019Z,6.12
2017-04-26T04:42:01.140Z,6.12
2017-04-26T04:42:27.232Z,6.08
2017-04-26T04:42:53.319Z,6.09
2017-04-26T04:43:19.450Z,6.07
2017-04-26T04:43:45.544Z,6.08
2017-04-26T04:44:11.658Z,6.08
2017-04-26T04:44:37.761Z,6.02
2017-04-26T04:45:03.856Z,6.02
2017-04-26T04:45:29.969Z,6.04
2017-04-26T04:45:56.144Z,5.97
2017-04-26T04:46:22.275Z,5.93
2017-04-26T04:46:48.383Z,5.91
2017-04-26T04:47:14.504Z,6.02
2017-04-26T04:47:40.677Z,5.98
2017-04-26T04:48:06.830Z,5.99
2017-04-26T04:48:32.928Z,6.02
2017-04-26T04:48:59.041Z,6.02
2017-04-26T04:49:25.164Z,5.93
2017-04-26T04:49:51.295Z,5.99
2017-04-26T04:50:17.406Z,6.02
2017-04-26T04:50:43.503Z,5.99
2017-04-26T04:51:09.632Z,5.89
2017-04-26T04:51:35.744Z,5.82
2017-04-26T04:52:01.838Z,5.82
2017-04-26T04:52:28.067Z,5.73
2017-04-26T04:52:54.179Z,5.69
2017-04-26T04:53:20.306Z,5.69
2017-04-26T04:53:46.466Z,5.69
2017-04-26T04:54:12.621Z,5.83
2017-04-26T04:54:38.746Z,5.65
2017-04-26T04:55:04.836Z,5.68
2017-04-26T04:55:30.979Z,5.75
2017-04-26T04:55:57.134Z,5.69
2017-04-26T04:56:23.224Z,5.82
2017-04-26T04:56:49.310Z,5.69
2017-04-26T04:57:15.440Z,5.69
2017-04-26T04:57:41.562Z,5.71
2017-04-26T04:58:07.673Z,5.82
2017-04-26T04:58:33.804Z,5.71
2017-04-26T04:58:59.929Z,5.69
2017-04-26T04:59:26.040Z,5.84
2017-04-26T04:59:52.191Z,5.8
2017-04-26T05:00:18.322Z,5.75
2017-04-26T05:00:44.406Z,5.76
2017-04-26T05:01:10.503Z,5.71
2017-04-26T05:01:36.607Z,5.69
2017-04-26T05:02:02.718Z,5.68
2017-04-26T05:02:28.836Z,5.73
2017-04-26T05:02:55.032Z,5.72
2017-04-26T05:03:21.162Z,5.75
2017-04-26T05:03:47.348Z,5.71
2017-04-26T05:04:13.448Z,5.73
2017-04-26T05:04:39.568Z,5.8
2017-04-26T05:05:05.699Z,5.75
2017-04-26T05:05:31.816Z,5.72
2017-04-26T05:05:57.909Z,5.71
2017-04-26T05:06:24.040Z,5.79
2017-04-26T05:06:50.133Z,5.75
2017-04-26T05:07:16.248Z,5.73
2017-04-26T05:07:42.358Z,5.8
2017-04-26T05:08:08.504Z,5.89
2017-04-26T05:08:34.591Z,5.9
2017-04-26T05:09:00.694Z,5.89
2017-04-26T05:09:26.848Z,5.93
2017-04-26T05:09:52.971Z,5.98
2017-04-26T05:10:19.091Z,6.01
2017-04-26T05:10:45.179Z,6.02
2017-04-26T05:11:11.280Z,5.87
2017-04-26T05:11:37.372Z,5.9
2017-04-26T05:12:03.483Z,5.91
2017-04-26T05:12:29.614Z,5.83
2017-04-26T05:12:55.711Z,5.82
2017-04-26T05:13:21.847Z,5.91
2017-04-26T05:13:47.999Z,5.91
2017-04-26T05:14:14.132Z,5.9
2017-04-26T05:14:40.296Z,6.01
2017-04-26T05:15:06.440Z,6.01
2017-04-26T05:15:32.530Z,6.01
2017-04-26T05:15:58.635Z,5.97
2017-04-26T05:16:24.731Z,5.97
2017-04-26T05:16:50.821Z,5.87
2017-04-26T05:17:16.921Z,5.83
2017-04-26T05:17:43.025Z,5.82
2017-04-26T05:18:09.137Z,5.84
2017-04-26T05:18:35.285Z,5.93
2017-04-26T05:19:01.470Z,5.86
2017-04-26T05:19:27.609Z,5.98
2017-04-26T05:19:53.752Z,5.98
2017-04-26T05:20:19.855Z,5.99
2017-04-26T05:20:45.946Z,5.91
2017-04-26T05:21:12.124Z,5.99
2017-04-26T05:21:38.208Z,6.02
2017-04-26T05:22:04.352Z,5.87
2017-04-26T05:22:30.431Z,5.94
2017-04-26T05:22:56.519Z,6.01
2017-04-26T05:23:22.611Z,5.94
2017-04-26T05:23:48.769Z,6.01
2017-04-26T05:24:14.885Z,6.04
2017-04-26T05:24:41.021Z,6.07
2017-04-26T05:25:07.155Z,6.02
2017-04-26T05:25:33.303Z,6.04
2017-04-26T05:25:59.390Z,6.04
2017-04-26T05:26:25.520Z,6.07
2017-04-26T05:26:51.610Z,6.09
2017-04-26T05:27:17.741Z,6.11
2017-04-26T05:27:43.832Z,6.02
2017-04-26T05:28:09.919Z,6.05
2017-04-26T05:28:36.051Z,6.02
2017-04-26T05:29:02.226Z,6.02
2017-04-26T05:29:28.387Z,6.07
2017-04-26T05:29:54.516Z,6.07
2017-04-26T05:30:20.641Z,6.09
2017-04-26T05:30:46.724Z,6.04
2017-04-26T05:31:12.822Z,6.09
2017-04-26T05:31:38.926Z,6.09
2017-04-26T05:32:05.017Z,6.11
2017-04-26T05:32:31.113Z,6.11
2017-04-26T05:32:57.224Z,6.12
2017-04-26T05:33:23.382Z,6.12
2017-04-26T05:33:49.532Z,6.09
2017-04-26T05:34:15.645Z,6.04
2017-04-26T05:34:41.746Z,6.22
2017-04-26T05:35:07.849Z,6.19
2017-04-26T05:35:33.932Z,6.31
2017-04-26T05:36:00.082Z,6.33
2017-04-26T05:36:26.266Z,6.3
2017-04-26T05:36:52.379Z,6.24
2017-04-26T05:37:18.471Z,6.26
2017-04-26T05:37:44.594Z,6.36
2017-04-26T05:38:10.744Z,6.44
2017-04-26T05:38:36.905Z,6.48
2017-04-26T05:39:03.089Z,6.59
2017-04-26T05:39:29.211Z,6.59
2017-04-26T05:39:55.369Z,6.63
2017-04-26T05:40:21.484Z,6.67
2017-04-26T05:40:47.602Z,6.59
2017-04-26T05:41:13.707Z,6.7
2017-04-26T05:41:39.796Z,6.72
2017-04-26T05:42:05.958Z,6.81
2017-04-26T05:42:32.120Z,6.85
2017-04-26T05:42:58.240Z,6.84
2017-04-26T05:43:24.328Z,6.85
2017-04-26T05:43:50.457Z,6.84
2017-04-26T05:44:16.581Z,6.78
2017-04-26T05:44:42.667Z,6.84
2017-04-26T05:45:08.818Z,6.82
2017-04-26T05:45:34.950Z,6.78
2017-04-26T05:46:01.033Z,6.74
2017-04-26T05:46:27.158Z,6.74
2017-04-26T05:46:53.261Z,6.72
2017-04-26T05:47:19.373Z,6.78
2017-04-26T05:47:45.491Z,6.87
2017-04-26T05:48:11.595Z,6.92
2017-04-26T05:48:37.736Z,6.88
2017-04-26T05:49:03.893Z,6.88